createdAt,value
2018-11-03T00:00:17.695Z,8.15
2018-11-03T00:00:43.835Z,8.12
2018-11-03T00:01:09.992Z,8.08
2018-11-03T00:01:36.116Z,8.06
2018-11-03T00:02:02.252Z,8
2018-11-03T00:02:28.380Z,8.03
2018-11-03T00:02:54.515Z,8.03
2018-11-03T00:03:20.673Z,8.05
2018-11-03T00:03:46.794Z,8.06
2018-11-03T00:04:12.949Z,8.08
2018-11-03T00:04:39.085Z,8.05
2018-11-03T00:05:05.241Z,8.1
2018-11-03T00:05:31.372Z,8.01
2018-11-03T00:05:57.501Z,8.03
2018-11-03T00:06:23.634Z,7.97
2018-11-03T00:06:49.773Z,7.91
2018-11-03T00:07:15.924Z,7.98
2018-11-03T00:07:42.065Z,7.75
2018-11-03T00:08:08.210Z,7.83
2018-11-03T00:08:34.363Z,7.87
2018-11-03T00:09:00.491Z,7.87
2018-11-03T00:09:26.620Z,7.94
2018-11-03T00:09:52.774Z,7.88
2018-11-03T00:10:18.897Z,7.97
2018-11-03T00:10:45.037Z,8
2018-11-03T00:11:11.169Z,7.98
2018-11-03T00:11:37.300Z,8.03
2018-11-03T00:12:03.434Z,7.97
2018-11-03T00:12:29.590Z,8.05
2018-11-03T00:12:55.747Z,8.01
2018-11-03T00:13:21.883Z,8.03
2018-11-03T00:13:48.037Z,8.08
2018-11-03T00:14:14.166Z,8.15
2018-11-03T00:14:40.291Z,8.16
2018-11-03T00:15:06.451Z,8.18
2018-11-03T00:15:32.597Z,8.19
2018-11-03T00:15:58.728Z,8.16
2018-11-03T00:16:24.863Z,8.26
2018-11-03T00:16:51.029Z,8.16
2018-11-03T00:17:17.188Z,8.2
2018-11-03T00:17:43.335Z,8.03
2018-11-03T00:18:09.493Z,8.08
2018-11-03T00:18:35.627Z,8.03
2018-11-03T00:19:01.763Z,8
2018-11-03T00:19:27.896Z,8
2018-11-03T00:19:54.026Z,8.03
2018-11-03T00:20:20.175Z,8.01
2018-11-03T00:20:46.308Z,8.05
2018-11-03T00:21:12.440Z,8.01
2018-11-03T00:21:38.569Z,8.03
2018-11-03T00:22:04.704Z,7.95
2018-11-03T00:22:30.834Z,8
2018-11-03T00:22:56.998Z,7.94
2018-11-03T00:23:23.121Z,7.88
2018-11-03T00:23:49.249Z,7.83
2018-11-03T00:24:15.394Z,7.91
2018-11-03T00:24:41.522Z,7.93
2018-11-03T00:25:07.655Z,7.82
2018-11-03T00:25:33.788Z,7.85
2018-11-03T00:25:59.911Z,7.85
2018-11-03T00:26:26.046Z,7.85
2018-11-03T00:26:52.179Z,7.82
2018-11-03T00:27:18.316Z,7.77
2018-11-03T00:27:44.464Z,7.7
2018-11-03T00:28:10.621Z,7.67
2018-11-03T00:28:36.748Z,7.73
2018-11-03T00:29:02.989Z,7.82
2018-11-03T00:29:29.124Z,7.87
2018-11-03T00:29:55.255Z,7.79
2018-11-03T00:30:21.393Z,7.8
2018-11-03T00:30:47.518Z,7.77
2018-11-03T00:31:13.650Z,7.69
2018-11-03T00:31:39.777Z,7.83
2018-11-03T00:32:05.938Z,7.75
2018-11-03T00:32:32.063Z,7.72
2018-11-03T00:32:58.193Z,7.67
2018-11-03T00:33:24.334Z,7.79
2018-11-03T00:33:50.479Z,7.75
2018-11-03T00:34:16.613Z,7.7
2018-11-03T00:34:42.747Z,7.72
2018-11-03T00:35:08.878Z,7.82
2018-11-03T00:35:35.007Z,7.69
2018-11-03T00:36:01.130Z,7.79
2018-11-03T00:36:27.285Z,7.75
2018-11-03T00:36:53.442Z,7.79
2018-11-03T00:37:19.573Z,7.79
2018-11-03T00:37:45.708Z,7.75
2018-11-03T00:38:11.839Z,7.75
2018-11-03T00:38:37.993Z,7.69
2018-11-03T00:39:04.180Z,7.67
2018-11-03T00:39:30.313Z,7.75
2018-11-03T00:39:56.444Z,7.63
2018-11-03T00:40:22.664Z,7.82
2018-11-03T00:40:48.734Z,7.79
2018-11-03T00:41:14.860Z,7.83
2018-11-03T00:41:40.997Z,7.87
2018-11-03T00:42:07.120Z,7.91
2018-11-03T00:42:33.263Z,7.77
2018-11-03T00:42:59.412Z,7.82
2018-11-03T00:43:25.580Z,7.82
2018-11-03T00:43:51.713Z,7.87
2018-11-03T00:44:17.845Z,7.8
2018-11-03T00:44:43.975Z,7.77
2018-11-03T00:45:10.129Z,7.73
2018-11-03T00:45:36.282Z,7.7
2018-11-03T00:46:02.415Z,7.69
2018-11-03T00:46:28.572Z,7.63
2018-11-03T00:46:54.703Z,7.67
2018-11-03T00:47:20.853Z,7.7
2018-11-03T00:47:46.976Z,7.7
2018-11-03T00:48:13.112Z,7.69
2018-11-03T00:48:39.252Z,7.72
2018-11-03T00:49:05.430Z,7.7
2018-11-03T00:49:31.558Z,7.8
2018-11-03T00:49:57.713Z,7.69
2018-11-03T00:50:23.869Z,7.66
2018-11-03T00:50:50.016Z,7.7
2018-11-03T00:51:16.190Z,7.57
2018-11-03T00:51:42.324Z,7.72
2018-11-03T00:52:08.460Z,7.61
2018-11-03T00:52:34.586Z,7.56
2018-11-03T00:53:00.748Z,7.63
2018-11-03T00:53:26.897Z,7.7
2018-11-03T00:53:53.025Z,7.7
2018-11-03T00:54:19.160Z,7.69
2018-11-03T00:54:45.284Z,7.63
2018-11-03T00:55:11.410Z,7.56
2018-11-03T00:55:37.535Z,7.61
2018-11-03T00:56:03.672Z,7.54
2018-11-03T00:56:29.808Z,7.66
2018-11-03T00:56:55.941Z,7.6
2018-11-03T00:57:22.069Z,7.5
2018-11-03T00:57:48.198Z,7.56
2018-11-03T00:58:14.322Z,7.54
2018-11-03T00:58:40.455Z,7.51
2018-11-03T00:59:06.590Z,7.48
2018-11-03T00:59:32.747Z,7.47
2018-11-03T00:59:58.905Z,7.43
2018-11-03T01:00:25.036Z,7.43
2018-11-03T01:00:51.172Z,7.4
2018-11-03T01:01:17.303Z,7.33
2018-11-03T01:01:43.426Z,7.4
2018-11-03T01:02:09.556Z,7.36
2018-11-03T01:02:35.693Z,7.38
2018-11-03T01:03:01.822Z,7.43
2018-11-03T01:03:27.972Z,7.51
2018-11-03T01:03:54.108Z,7.54
2018-11-03T01:04:20.255Z,7.45
2018-11-03T01:04:46.387Z,7.54
2018-11-03T01:05:12.564Z,7.51
2018-11-03T01:05:38.668Z,7.54
2018-11-03T01:06:04.826Z,7.51
2018-11-03T01:06:30.994Z,7.51
2018-11-03T01:06:57.178Z,7.48
2018-11-03T01:07:23.310Z,7.42
2018-11-03T01:07:49.500Z,7.48
2018-11-03T01:08:15.623Z,7.51
2018-11-03T01:08:41.755Z,7.51
2018-11-03T01:09:07.890Z,7.42
2018-11-03T01:09:34.028Z,7.35
2018-11-03T01:10:00.153Z,7.45
2018-11-03T01:10:26.292Z,7.39
2018-11-03T01:10:52.407Z,7.43
2018-11-03T01:11:18.537Z,7.45
2018-11-03T01:11:44.668Z,7.45
2018-11-03T01:12:10.860Z,7.38
2018-11-03T01:12:36.991Z,7.43
2018-11-03T01:13:03.145Z,7.47
2018-11-03T01:13:29.307Z,7.45
2018-11-03T01:13:55.416Z,7.42
2018-11-03T01:14:21.550Z,7.38
2018-11-03T01:14:47.677Z,7.36
2018-11-03T01:15:13.805Z,7.42
2018-11-03T01:15:39.934Z,7.4
2018-11-03T01:16:06.070Z,7.35
2018-11-03T01:16:32.203Z,7.38
2018-11-03T01:16:58.328Z,7.43
2018-11-03T01:17:24.453Z,7.45
2018-11-03T01:17:50.586Z,7.5
2018-11-03T01:18:16.708Z,7.48
2018-11-03T01:18:42.865Z,7.5
2018-11-03T01:19:08.993Z,7.51
2018-11-03T01:19:35.170Z,7.53
2018-11-03T01:20:01.262Z,7.51
2018-11-03T01:20:27.419Z,7.45
2018-11-03T01:20:53.548Z,7.47
2018-11-03T01:21:19.685Z,7.47
2018-11-03T01:21:45.816Z,7.42
2018-11-03T01:22:11.944Z,7.48
2018-11-03T01:22:38.072Z,7.4
2018-11-03T01:23:04.206Z,7.23
2018-11-03T01:23:30.400Z,7.31
2018-11-03T01:23:56.546Z,7.35
2018-11-03T01:24:22.703Z,7.28
2018-11-03T01:24:48.835Z,7.31
2018-11-03T01:25:14.962Z,7.29
2018-11-03T01:25:41.100Z,7.42
2018-11-03T01:26:07.227Z,7.33
2018-11-03T01:26:33.381Z,7.32
2018-11-03T01:26:59.540Z,7.31
2018-11-03T01:27:25.672Z,7.29
2018-11-03T01:27:51.816Z,7.43
2018-11-03T01:28:17.940Z,7.5
2018-11-03T01:28:44.109Z,7.36
2018-11-03T01:29:10.285Z,7.42
2018-11-03T01:29:36.420Z,7.51
2018-11-03T01:30:02.551Z,7.38
2018-11-03T01:30:28.730Z,7.38
2018-11-03T01:30:54.883Z,7.24
2018-11-03T01:31:21.013Z,7.42
2018-11-03T01:31:47.141Z,7.29
2018-11-03T01:32:13.313Z,7.28
2018-11-03T01:32:39.465Z,7.17
2018-11-03T01:33:05.572Z,7.15
2018-11-03T01:33:31.696Z,7.18
2018-11-03T01:33:57.853Z,7.23
2018-11-03T01:34:23.984Z,7.29
2018-11-03T01:34:50.148Z,7.15
2018-11-03T01:35:16.281Z,7.25
2018-11-03T01:35:42.414Z,7.29
2018-11-03T01:36:08.539Z,7.31
2018-11-03T01:36:34.675Z,7.35
2018-11-03T01:37:00.802Z,7.4
2018-11-03T01:37:26.970Z,7.4
2018-11-03T01:37:53.059Z,7.42
2018-11-03T01:38:19.189Z,7.45
2018-11-03T01:38:45.328Z,7.28
2018-11-03T01:39:11.473Z,7.36
2018-11-03T01:39:37.610Z,7.28
2018-11-03T01:40:03.806Z,7.33
2018-11-03T01:40:29.932Z,7.29
2018-11-03T01:40:56.117Z,7.43
2018-11-03T01:41:22.240Z,7.36
2018-11-03T01:41:48.444Z,7.45
2018-11-03T01:42:14.551Z,7.38
2018-11-03T01:42:40.710Z,7.48
2018-11-03T01:43:06.862Z,7.4
2018-11-03T01:43:32.994Z,7.45
2018-11-03T01:43:59.171Z,7.45
2018-11-03T01:44:25.277Z,7.42
2018-11-03T01:44:51.411Z,7.35
2018-11-03T01:45:17.550Z,7.5
2018-11-03T01:45:43.671Z,7.39
2018-11-03T01:46:09.799Z,7.32
2018-11-03T01:46:35.928Z,7.39
2018-11-03T01:47:02.058Z,7.31
2018-11-03T01:47:28.191Z,7.24
2018-11-03T01:47:54.316Z,7.25
2018-11-03T01:48:20.449Z,7.23
2018-11-03T01:48:46.590Z,7.07
2018-11-03T01:49:12.761Z,7.07
2018-11-03T01:49:38.896Z,7.17
2018-11-03T01:50:05.031Z,7.1
2018-11-03T01:50:31.160Z,7.15
2018-11-03T01:50:57.316Z,7.15
2018-11-03T01:51:23.471Z,7.18
2018-11-03T01:51:49.596Z,7.24
2018-11-03T01:52:15.751Z,7.21
2018-11-03T01:52:41.884Z,7.18
2018-11-03T01:53:08.020Z,7.14
2018-11-03T01:53:34.167Z,7.07
2018-11-03T01:54:00.303Z,7.14
2018-11-03T01:54:26.432Z,7.11
2018-11-03T01:54:52.569Z,7.07
2018-11-03T01:55:18.722Z,7.2
2018-11-03T01:55:44.846Z,7.24
2018-11-03T01:56:10.976Z,7.2
2018-11-03T01:56:37.145Z,7.23
2018-11-03T01:57:03.267Z,7.18
2018-11-03T01:57:29.405Z,7.14
2018-11-03T01:57:55.580Z,7.13
2018-11-03T01:58:21.664Z,7.11
2018-11-03T01:58:47.830Z,7.14
2018-11-03T01:59:13.963Z,7.11
2018-11-03T01:59:40.089Z,7.14
2018-11-03T02:00:06.217Z,7.11
2018-11-03T02:00:32.376Z,7.1
2018-11-03T02:00:58.508Z,7.05
2018-11-03T02:01:24.662Z,7.07
2018-11-03T02:01:50.840Z,7.1
2018-11-03T02:02:16.970Z,7.07
2018-11-03T02:02:43.098Z,7.11
2018-11-03T02:03:09.265Z,7.13
2018-11-03T02:03:35.399Z,7.11
2018-11-03T02:04:01.550Z,7.11
2018-11-03T02:04:27.742Z,7.14
2018-11-03T02:04:53.900Z,7.13
2018-11-03T02:05:20.064Z,7.07
2018-11-03T02:05:46.210Z,7.11
2018-11-03T02:06:12.347Z,7.07
2018-11-03T02:06:38.473Z,7.1
2018-11-03T02:07:04.592Z,7.07
2018-11-03T02:07:30.760Z,7.13
2018-11-03T02:07:56.854Z,7.14
2018-11-03T02:08:23.012Z,7.07
2018-11-03T02:08:49.113Z,6.99
2018-11-03T02:09:15.245Z,7.02
2018-11-03T02:09:41.383Z,7
2018-11-03T02:10:07.514Z,6.96
2018-11-03T02:10:33.650Z,6.96
2018-11-03T02:10:59.778Z,6.95
2018-11-03T02:11:25.936Z,6.89
2018-11-03T02:11:52.138Z,6.85
2018-11-03T02:12:18.254Z,6.88
2018-11-03T02:12:44.393Z,6.95
2018-11-03T02:13:10.549Z,6.89
2018-11-03T02:13:36.707Z,6.97
2018-11-03T02:14:02.834Z,6.96
2018-11-03T02:14:29.006Z,6.99
2018-11-03T02:14:55.142Z,7
2018-11-03T02:15:21.292Z,6.96
2018-11-03T02:15:47.430Z,6.99
2018-11-03T02:16:13.556Z,7.07
2018-11-03T02:16:39.692Z,7.18
2018-11-03T02:17:05.840Z,7.13
2018-11-03T02:17:31.973Z,7.18
2018-11-03T02:17:58.106Z,7.18
2018-11-03T02:18:24.235Z,7.2
2018-11-03T02:18:50.365Z,7.17
2018-11-03T02:19:16.496Z,7.29
2018-11-03T02:19:42.670Z,7.32
2018-11-03T02:20:08.804Z,7.31
2018-11-03T02:20:34.936Z,7.31
2018-11-03T02:21:01.060Z,7.29
2018-11-03T02:21:27.190Z,7.28
2018-11-03T02:21:53.319Z,7.32
2018-11-03T02:22:19.454Z,7.15
2018-11-03T02:22:45.600Z,7.32
2018-11-03T02:23:11.735Z,7.23
2018-11-03T02:23:37.859Z,7.31
2018-11-03T02:24:03.998Z,7.24
2018-11-03T02:24:30.157Z,7.29
2018-11-03T02:24:56.278Z,7.23
2018-11-03T02:25:22.437Z,7.23
2018-11-03T02:25:48.613Z,7.15
2018-11-03T02:26:14.725Z,7.1
2018-11-03T02:26:40.861Z,7.07
2018-11-03T02:27:07.001Z,7.11
2018-11-03T02:27:33.141Z,7.07
2018-11-03T02:27:59.306Z,7.13
2018-11-03T02:28:25.438Z,7.07
2018-11-03T02:28:51.569Z,7.03
2018-11-03T02:29:17.723Z,7.07
2018-11-03T02:29:43.845Z,7.06
2018-11-03T02:30:10.004Z,7.17
2018-11-03T02:30:36.176Z,7.21
2018-11-03T02:31:02.349Z,7.21
2018-11-03T02:31:28.566Z,7.2
2018-11-03T02:31:54.731Z,7.15
2018-11-03T02:32:20.877Z,7.13
2018-11-03T02:32:47.011Z,7.03
2018-11-03T02:33:13.141Z,6.97
2018-11-03T02:33:39.272Z,7.06
2018-11-03T02:34:05.490Z,6.96
2018-11-03T02:34:31.574Z,6.96
2018-11-03T02:34:57.704Z,6.95
2018-11-03T02:35:23.859Z,6.96
2018-11-03T02:35:49.992Z,7
2018-11-03T02:36:16.118Z,7.03
2018-11-03T02:36:42.279Z,7.13
2018-11-03T02:37:08.431Z,7.05
2018-11-03T02:37:34.586Z,7.05
2018-11-03T02:38:00.764Z,7.14
2018-11-03T02:38:26.920Z,7.1
2018-11-03T02:38:53.067Z,7.05
2018-11-03T02:39:19.203Z,7.11
2018-11-03T02:39:45.326Z,7.14
2018-11-03T02:40:11.461Z,7.03
2018-11-03T02:40:37.598Z,7.02
2018-11-03T02:41:03.757Z,7.02
2018-11-03T02:41:29.883Z,7.05
2018-11-03T02:41:56.037Z,7.07
2018-11-03T02:42:22.188Z,7.05
2018-11-03T02:42:48.358Z,7.02
2018-11-03T02:43:14.497Z,6.97
2018-11-03T02:43:40.653Z,6.99
2018-11-03T02:44:06.837Z,6.97
2018-11-03T02:44:32.970Z,6.96
2018-11-03T02:44:59.121Z,7
2018-11-03T02:45:25.249Z,7.03
2018-11-03T02:45:51.406Z,6.99
2018-11-03T02:46:17.614Z,7.14
2018-11-03T02:46:43.689Z,7.03
2018-11-03T02:47:09.816Z,7.14
2018-11-03T02:47:35.967Z,7.15
2018-11-03T02:48:02.132Z,7.14
2018-11-03T02:48:28.281Z,6.96
2018-11-03T02:48:54.461Z,6.99
2018-11-03T02:49:20.615Z,6.97
2018-11-03T02:49:46.839Z,6.97
2018-11-03T02:50:12.908Z,7
2018-11-03T02:50:39.035Z,6.97
2018-11-03T02:51:05.178Z,6.99
2018-11-03T02:51:31.322Z,6.97
2018-11-03T02:51:57.481Z,6.99
2018-11-03T02:52:23.660Z,6.96
2018-11-03T02:52:49.826Z,6.93
2018-11-03T02:53:15.942Z,6.97
2018-11-03T02:53:42.122Z,6.89
2018-11-03T02:54:08.289Z,7.03
2018-11-03T02:54:34.436Z,6.93
2018-11-03T02:55:00.567Z,6.97
2018-11-03T02:55:26.695Z,6.96
2018-11-03T02:55:52.865Z,6.93
2018-11-03T02:56:19.011Z,6.97
2018-11-03T02:56:45.153Z,7
2018-11-03T02:57:11.286Z,6.78
2018-11-03T02:57:37.423Z,6.82
2018-11-03T02:58:03.545Z,6.62
2018-11-03T02:58:29.678Z,6.75
2018-11-03T02:58:55.823Z,6.77
2018-11-03T02:59:21.996Z,6.74
2018-11-03T02:59:48.131Z,6.72
2018-11-03T03:00:14.320Z,6.64
2018-11-03T03:00:40.438Z,6.75
2018-11-03T03:01:06.597Z,6.7
2018-11-03T03:01:32.726Z,6.77
2018-11-03T03:01:58.862Z,6.78
2018-11-03T03:02:24.989Z,6.72
2018-11-03T03:02:51.121Z,6.77
2018-11-03T03:03:17.306Z,6.77
2018-11-03T03:03:43.458Z,6.78
2018-11-03T03:04:09.587Z,6.77
2018-11-03T03:04:35.743Z,6.72
2018-11-03T03:05:01.874Z,6.69
2018-11-03T03:05:28.009Z,6.79
2018-11-03T03:05:54.139Z,6.81
2018-11-03T03:06:20.287Z,6.79
2018-11-03T03:06:46.420Z,6.78
2018-11-03T03:07:12.555Z,6.81
2018-11-03T03:07:38.705Z,6.72
2018-11-03T03:08:04.860Z,6.75
2018-11-03T03:08:30.982Z,6.7
2018-11-03T03:08:57.139Z,6.79
2018-11-03T03:09:23.261Z,6.78
2018-11-03T03:09:49.395Z,6.78
2018-11-03T03:10:15.549Z,6.81
2018-11-03T03:10:41.699Z,6.81
2018-11-03T03:11:07.827Z,6.77
2018-11-03T03:11:33.959Z,6.78
2018-11-03T03:12:00.143Z,6.79
2018-11-03T03:12:26.271Z,6.79
2018-11-03T03:12:52.425Z,6.78
2018-11-03T03:13:18.601Z,6.81
2018-11-03T03:13:44.756Z,6.81
2018-11-03T03:14:10.886Z,6.78
2018-11-03T03:14:37.032Z,6.74
2018-11-03T03:15:03.180Z,6.7
2018-11-03T03:15:29.341Z,6.69
2018-11-03T03:15:55.472Z,6.74
2018-11-03T03:16:21.646Z,6.7
2018-11-03T03:16:47.795Z,6.77
2018-11-03T03:17:13.952Z,6.77
2018-11-03T03:17:40.105Z,6.81
2018-11-03T03:18:06.282Z,6.79
2018-11-03T03:18:32.444Z,6.79
2018-11-03T03:18:58.668Z,6.79
2018-11-03T03:19:24.736Z,6.81
2018-11-03T03:19:50.869Z,6.79
2018-11-03T03:20:16.998Z,6.77
2018-11-03T03:20:43.149Z,6.79
2018-11-03T03:21:09.283Z,6.75
2018-11-03T03:21:35.434Z,6.77
2018-11-03T03:22:01.646Z,6.81
2018-11-03T03:22:27.761Z,6.88
2018-11-03T03:22:53.897Z,6.84
2018-11-03T03:23:20.026Z,6.92
2018-11-03T03:23:46.152Z,6.97
2018-11-03T03:24:12.326Z,6.92
2018-11-03T03:24:38.471Z,6.92
2018-11-03T03:25:04.600Z,6.93
2018-11-03T03:25:30.725Z,6.92
2018-11-03T03:25:56.850Z,6.88
2018-11-03T03:26:23.005Z,6.88
2018-11-03T03:26:49.133Z,6.89
2018-11-03T03:27:15.283Z,6.95
2018-11-03T03:27:41.413Z,6.97
2018-11-03T03:28:07.572Z,6.99
2018-11-03T03:28:33.695Z,6.96
2018-11-03T03:28:59.956Z,6.96
2018-11-03T03:29:25.977Z,6.96
2018-11-03T03:29:52.129Z,6.96
2018-11-03T03:30:18.279Z,6.93
2018-11-03T03:30:44.434Z,6.97
2018-11-03T03:31:10.595Z,6.99
2018-11-03T03:31:36.721Z,6.93
2018-11-03T03:32:02.857Z,7.02
2018-11-03T03:32:29.007Z,7.02
2018-11-03T03:32:55.197Z,6.96
2018-11-03T03:33:21.342Z,6.82
2018-11-03T03:33:47.469Z,6.88
2018-11-03T03:34:13.591Z,6.87
2018-11-03T03:34:39.730Z,6.81
2018-11-03T03:35:05.905Z,6.77
2018-11-03T03:35:32.065Z,6.82
2018-11-03T03:35:58.213Z,6.77
2018-11-03T03:36:24.371Z,6.78
2018-11-03T03:36:50.497Z,6.62
2018-11-03T03:37:16.645Z,6.77
2018-11-03T03:37:42.784Z,6.67
2018-11-03T03:38:08.931Z,6.62
2018-11-03T03:38:35.114Z,6.57
2018-11-03T03:39:01.235Z,6.56
2018-11-03T03:39:27.365Z,6.6
2018-11-03T03:39:53.510Z,6.54
2018-11-03T03:40:19.664Z,6.52
2018-11-03T03:40:45.791Z,6.52
2018-11-03T03:41:11.942Z,6.56
2018-11-03T03:41:38.071Z,6.52
2018-11-03T03:42:04.222Z,6.57
2018-11-03T03:42:30.401Z,6.6
2018-11-03T03:42:56.553Z,6.7
2018-11-03T03:43:22.690Z,6.6
2018-11-03T03:43:48.828Z,6.62
2018-11-03T03:44:15.001Z,6.74
2018-11-03T03:44:41.150Z,6.75
2018-11-03T03:45:07.285Z,6.77
2018-11-03T03:45:33.417Z,6.78
2018-11-03T03:45:59.569Z,6.87
2018-11-03T03:46:25.724Z,6.75
2018-11-03T03:46:51.876Z,6.77
2018-11-03T03:47:18.010Z,6.78
2018-11-03T03:47:44.218Z,6.87
2018-11-03T03:48:10.310Z,6.82
2018-11-03T03:48:36.463Z,6.82
2018-11-03T03:49:02.625Z,6.82
2018-11-03T03:49:28.757Z,6.84
2018-11-03T03:49:54.937Z,6.85
2018-11-03T03:50:21.032Z,6.81
2018-11-03T03:50:47.178Z,6.77
2018-11-03T03:51:13.309Z,6.79
2018-11-03T03:51:39.464Z,6.77
2018-11-03T03:52:05.593Z,6.85
2018-11-03T03:52:31.737Z,6.81
2018-11-03T03:52:57.858Z,6.81
2018-11-03T03:53:24.040Z,6.79
2018-11-03T03:53:50.188Z,6.69
2018-11-03T03:54:16.338Z,6.7
2018-11-03T03:54:42.472Z,6.74
2018-11-03T03:55:08.605Z,6.63
2018-11-03T03:55:34.729Z,6.6
2018-11-03T03:56:00.859Z,6.69
2018-11-03T03:56:26.990Z,6.67
2018-11-03T03:56:53.121Z,6.59
2018-11-03T03:57:19.273Z,6.69
2018-11-03T03:57:45.423Z,6.77
2018-11-03T03:58:11.530Z,6.6
2018-11-03T03:58:37.704Z,6.57
2018-11-03T03:59:03.860Z,6.74
2018-11-03T03:59:30.005Z,6.7
2018-11-03T03:59:56.137Z,6.7
2018-11-03T04:00:22.294Z,6.77
2018-11-03T04:00:48.423Z,6.69
2018-11-03T04:01:14.557Z,6.74
2018-11-03T04:01:40.692Z,6.62
2018-11-03T04:02:06.847Z,6.63
2018-11-03T04:02:33.040Z,6.62
2018-11-03T04:02:59.166Z,6.64
2018-11-03T04:03:25.314Z,6.7
2018-11-03T04:03:51.443Z,6.69
2018-11-03T04:04:17.594Z,6.75
2018-11-03T04:04:43.748Z,6.7
2018-11-03T04:05:09.927Z,6.72
2018-11-03T04:05:36.057Z,6.67
2018-11-03T04:06:02.181Z,6.72
2018-11-03T04:06:28.361Z,6.64
2018-11-03T04:06:54.521Z,6.72
2018-11-03T04:07:20.649Z,6.6
2018-11-03T04:07:46.799Z,6.6
2018-11-03T04:08:12.964Z,6.6
2018-11-03T04:08:39.096Z,6.72
2018-11-03T04:09:05.222Z,6.7
2018-11-03T04:09:31.373Z,6.72
2018-11-03T04:09:57.502Z,6.67
2018-11-03T04:10:23.637Z,6.67
2018-11-03T04:10:49.770Z,6.69
2018-11-03T04:11:15.895Z,6.67
2018-11-03T04:11:42.024Z,6.7
2018-11-03T04:12:08.158Z,6.67
2018-11-03T04:12:34.312Z,6.72
2018-11-03T04:13:00.469Z,6.59
2018-11-03T04:13:26.605Z,6.6
2018-11-03T04:13:52.728Z,6.59
2018-11-03T04:14:18.859Z,6.59
2018-11-03T04:14:44.990Z,6.6
2018-11-03T04:15:11.158Z,6.6
2018-11-03T04:15:37.319Z,6.59
2018-11-03T04:16:03.457Z,6.59
2018-11-03T04:16:29.600Z,6.72
2018-11-03T04:16:55.737Z,6.7
2018-11-03T04:17:21.890Z,6.72
2018-11-03T04:17:48.041Z,6.74
2018-11-03T04:18:14.153Z,6.72
2018-11-03T04:18:40.292Z,6.69
2018-11-03T04:19:06.423Z,6.69
2018-11-03T04:19:32.552Z,6.69
2018-11-03T04:19:58.684Z,6.67
2018-11-03T04:20:24.816Z,6.75
2018-11-03T04:20:50.940Z,6.59
2018-11-03T04:21:17.073Z,6.72
2018-11-03T04:21:43.246Z,6.77
2018-11-03T04:22:09.393Z,6.78
2018-11-03T04:22:35.572Z,6.75
2018-11-03T04:23:01.713Z,6.74
2018-11-03T04:23:27.885Z,6.74
2018-11-03T04:23:54.011Z,6.82
2018-11-03T04:24:20.170Z,6.82
2018-11-03T04:24:46.326Z,6.78
2018-11-03T04:25:12.454Z,6.79
2018-11-03T04:25:38.608Z,6.81
2018-11-03T04:26:04.733Z,6.72
2018-11-03T04:26:30.878Z,6.78
2018-11-03T04:26:57.009Z,6.7
2018-11-03T04:27:23.144Z,6.66
2018-11-03T04:27:49.317Z,6.6
2018-11-03T04:28:15.475Z,6.69
2018-11-03T04:28:41.603Z,6.75
2018-11-03T04:29:07.759Z,6.74
2018-11-03T04:29:33.910Z,6.78
2018-11-03T04:30:00.047Z,6.75
2018-11-03T04:30:26.189Z,6.72
2018-11-03T04:30:52.326Z,6.72
2018-11-03T04:31:18.458Z,6.7
2018-11-03T04:31:44.588Z,6.66
2018-11-03T04:32:10.739Z,6.54
2018-11-03T04:32:36.890Z,6.7
2018-11-03T04:33:03.021Z,6.77
2018-11-03T04:33:29.149Z,6.77
2018-11-03T04:33:55.273Z,6.85
2018-11-03T04:34:21.428Z,6.75
2018-11-03T04:34:47.588Z,6.84
2018-11-03T04:35:13.732Z,6.81
2018-11-03T04:35:39.862Z,6.88
2018-11-03T04:36:05.991Z,6.84
2018-11-03T04:36:32.132Z,6.81
2018-11-03T04:36:58.278Z,6.88
2018-11-03T04:37:24.454Z,6.82
2018-11-03T04:37:50.613Z,6.77
2018-11-03T04:38:16.746Z,6.78
2018-11-03T04:38:42.876Z,6.82
2018-11-03T04:39:09.002Z,6.88
2018-11-03T04:39:35.138Z,6.77
2018-11-03T04:40:01.315Z,6.82
2018-11-03T04:40:27.467Z,6.77
2018-11-03T04:40:53.597Z,6.72
2018-11-03T04:41:19.751Z,6.74
2018-11-03T04:41:45.901Z,6.79
2018-11-03T04:42:12.045Z,6.75
2018-11-03T04:42:38.178Z,6.77
2018-11-03T04:43:04.335Z,6.74
2018-11-03T04:43:30.471Z,6.72
2018-11-03T04:43:56.602Z,6.84
2018-11-03T04:44:22.757Z,6.77
2018-11-03T04:44:48.885Z,6.78
2018-11-03T04:45:15.091Z,6.74
2018-11-03T04:45:41.377Z,6.82
2018-11-03T04:46:07.325Z,6.75
2018-11-03T04:46:33.472Z,6.78
2018-11-03T04:46:59.636Z,6.82
2018-11-03T04:47:25.791Z,6.85
2018-11-03T04:47:51.955Z,6.88
2018-11-03T04:48:18.085Z,6.85
2018-11-03T04:48:44.216Z,6.87
2018-11-03T04:49:10.353Z,6.78
2018-11-03T04:49:36.505Z,6.82
2018-11-03T04:50:02.658Z,6.85
2018-11-03T04:50:28.813Z,6.88
2018-11-03T04:50:54.971Z,6.84
2018-11-03T04:51:21.117Z,6.92
2018-11-03T04:51:47.255Z,6.88
2018-11-03T04:52:13.380Z,6.88
2018-11-03T04:52:39.511Z,6.95
2018-11-03T04:53:05.667Z,6.97
2018-11-03T04:53:31.820Z,6.88
2018-11-03T04:53:57.955Z,6.89
2018-11-03T04:54:24.103Z,6.84
2018-11-03T04:54:50.233Z,6.78
2018-11-03T04:55:16.468Z,6.79
2018-11-03T04:55:42.506Z,6.75
2018-11-03T04:56:08.640Z,6.66
2018-11-03T04:56:34.768Z,6.7
2018-11-03T04:57:00.892Z,6.75
2018-11-03T04:57:27.023Z,6.62
2018-11-03T04:57:53.157Z,6.7
2018-11-03T04:58:19.286Z,6.77
2018-11-03T04:58:45.445Z,6.59
2018-11-03T04:59:11.605Z,6.6
2018-11-03T04:59:37.735Z,6.59
2018-11-03T05:00:03.864Z,6.6
2018-11-03T05:00:29.994Z,6.63
2018-11-03T05:00:56.125Z,6.66
2018-11-03T05:01:22.258Z,6.74
2018-11-03T05:01:48.385Z,6.72
2018-11-03T05:02:14.513Z,6.67
2018-11-03T05:02:40.648Z,6.74
2018-11-03T05:03:06.781Z,6.78
2018-11-03T05:03:32.908Z,6.75
2018-11-03T05:03:59.041Z,6.7
2018-11-03T05:04:25.167Z,6.74
2018-11-03T05:04:51.302Z,6.59
2018-11-03T05:05:17.432Z,6.7
2018-11-03T05:05:43.591Z,6.57
2018-11-03T05:06:09.722Z,6.57
2018-11-03T05:06:35.895Z,6.57
2018-11-03T05:07:02.017Z,6.52
2018-11-03T05:07:28.145Z,6.46
2018-11-03T05:07:54.284Z,6.42
2018-11-03T05:08:20.439Z,6.46
2018-11-03T05:08:46.609Z,6.51
2018-11-03T05:09:12.765Z,6.48
2018-11-03T05:09:38.898Z,6.48
2018-11-03T05:10:05.061Z,6.49
2018-11-03T05:10:31.272Z,6.42
2018-11-03T05:10:57.331Z,6.49
2018-11-03T05:11:23.457Z,6.51
2018-11-03T05:11:49.592Z,6.49
2018-11-03T05:12:15.723Z,6.51
2018-11-03T05:12:41.872Z,6.6
2018-11-03T05:13:08.006Z,6.57
2018-11-03T05:13:34.130Z,6.6
2018-11-03T05:14:00.264Z,6.57
2018-11-03T05:14:26.437Z,6.62
2018-11-03T05:14:52.566Z,6.62
2018-11-03T05:15:18.698Z,6.51
2018-11-03T05:15:44.852Z,6.6
2018-11-03T05:16:10.985Z,6.51
2018-11-03T05:16:37.110Z,6.52
2018-11-03T05:17:03.240Z,6.6
2018-11-03T05:17:29.368Z,6.57
2018-11-03T05:17:55.520Z,6.6
2018-11-03T05:18:21.660Z,6.59
2018-11-03T05:18:47.805Z,6.54
2018-11-03T05:19:13.929Z,6.52
2018-11-03T05:19:40.062Z,6.51
2018-11-03T05:20:06.222Z,6.48
2018-11-03T05:20:32.350Z,6.54
2018-11-03T05:20:58.563Z,6.6
2018-11-03T05:21:24.757Z,6.51
2018-11-03T05:21:50.766Z,6.54
2018-11-03T05:22:16.897Z,6.56
2018-11-03T05:22:43.026Z,6.62
2018-11-03T05:23:09.159Z,6.62
2018-11-03T05:23:35.288Z,6.59
2018-11-03T05:24:01.423Z,6.56
2018-11-03T05:24:27.605Z,6.44
2018-11-03T05:24:53.756Z,6.49
2018-11-03T05:25:19.857Z,6.39
2018-11-03T05:25:46.014Z,6.45
2018-11-03T05:26:12.149Z,6.51
2018-11-03T05:26:38.298Z,6.42
2018-11-03T05:27:04.432Z,6.46
2018-11-03T05:27:30.573Z,6.45
2018-11-03T05:27:56.705Z,6.41
2018-11-03T05:28:22.861Z,6.52
2018-11-03T05:28:48.989Z,6.54
2018-11-03T05:29:15.125Z,6.6
2018-11-03T05:29:41.253Z,6.62
2018-11-03T05:30:07.387Z,6.57
2018-11-03T05:30:33.555Z,6.7
2018-11-03T05:30:59.733Z,6.67
2018-11-03T05:31:26.037Z,6.69
2018-11-03T05:31:51.999Z,6.62
2018-11-03T05:32:18.173Z,6.6
2018-11-03T05:32:44.273Z,6.77
2018-11-03T05:33:10.400Z,6.77
2018-11-03T05:33:36.536Z,6.74
2018-11-03T05:34:02.683Z,6.78
2018-11-03T05:34:28.819Z,6.74
2018-11-03T05:34:54.979Z,6.78
2018-11-03T05:35:21.110Z,6.75
2018-11-03T05:35:47.268Z,6.77
2018-11-03T05:36:13.396Z,6.77
2018-11-03T05:36:39.526Z,6.78
2018-11-03T05:37:05.673Z,6.78
2018-11-03T05:37:31.827Z,6.84
2018-11-03T05:37:57.952Z,6.82
2018-11-03T05:38:24.088Z,6.79
2018-11-03T05:38:50.215Z,6.82
2018-11-03T05:39:16.385Z,6.87
2018-11-03T05:39:42.510Z,6.81
2018-11-03T05:40:08.687Z,6.85
2018-11-03T05:40:34.821Z,6.88
2018-11-03T05:41:00.951Z,6.81
2018-11-03T05:41:27.077Z,6.84
2018-11-03T05:41:53.203Z,6.75
2018-11-03T05:42:19.356Z,6.84
2018-11-03T05:42:45.486Z,6.88
2018-11-03T05:43:11.642Z,6.81
2018-11-03T05:43:37.794Z,6.88
2018-11-03T05:44:03.931Z,6.78
2018-11-03T05:44:30.052Z,6.75
2018-11-03T05:44:56.183Z,6.79
2018-11-03T05:45:22.314Z,6.74
2018-11-03T05:45:48.462Z,6.74
2018-11-03T05:46:14.698Z,6.67
2018-11-03T05:46:40.921Z,6.72
2018-11-03T05:47:06.934Z,6.56
2018-11-03T05:47:33.070Z,6.59
2018-11-03T05:47:59.200Z,6.6
2018-11-03T05:48:25.344Z,6.67
2018-11-03T05:48:51.513Z,6.62
2018-11-03T05:49:17.643Z,6.63
2018-11-03T05:49:43.773Z,6.57